Time;durP1;ratioP1;P1;durP2;ratioP2;P2;SDS_P1;SDS_P2;PMS_P1;PMS_P2;Temp;Humidity;BMP_temperature;BMP_pressure;BME280_temperature;BME280_humidity;BME280_pressure;Samples;Min_cycle;Max_cycle;Signal;HPM_P1;HPM_P2
2022/01/27 00:01:15;;;;;;;33.90;17.65;;;;;;;0.05;83.02;101935.06;5042261;28;20481;-81
2022/01/27 00:03:50;;;;;;;34.13;18.13;;;;;;;-0.04;84.00;101926.09;5040899;28;20391;-81
2022/01/27 00:06:16;;;;;;;34.97;18.05;;;;;;;0.07;83.53;101922.47;5028322;28;20515;-81
2022/01/27 00:08:47;;;;;;;37.33;18.30;;;;;;;-0.04;83.21;101924.28;5029913;28;20760;-81
2022/01/27 00:11:15;;;;;;;35.67;18.08;;;;;;;-0.10;83.86;101910.69;5037469;28;20429;-81
2022/01/27 00:13:47;;;;;;;36.47;19.15;;;;;;;-0.07;83.82;101902.41;5041202;28;20407;-81
2022/01/27 00:16:27;;;;;;;34.90;18.42;;;;;;;-0.09;83.27;101915.84;5032102;28;20441;-81
2022/01/27 00:18:53;;;;;;;41.78;20.45;;;;;;;-0.22;84.11;101912.63;5031499;28;20657;-81
2022/01/27 00:21:21;;;;;;;34.95;18.55;;;;;;;-0.15;84.37;101911.09;5045183;28;20420;-81
2022/01/27 00:23:47;;;;;;;37.30;19.90;;;;;;;-0.08;83.87;101900.72;5038651;28;20423;-81
2022/01/27 00:26:15;;;;;;;33.33;18.27;;;;;;;-0.05;83.86;101889.75;5034837;28;20429;-81
2022/01/27 00:28:41;;;;;;;38.47;19.45;;;;;;;-0.02;83.52;101889.47;5044746;28;20392;-81
2022/01/27 00:31:08;;;;;;;39.27;19.33;;;;;;;-0.07;83.63;101891.75;5035101;28;20544;-81
2022/01/27 00:33:34;;;;;;;37.05;18.63;;;;;;;-0.05;83.71;101881.78;5043681;28;20893;-81
2022/01/27 00:35:59;;;;;;;34.17;18.15;;;;;;;-0.08;84.07;101888.22;5031423;28;20816;-82
2022/01/27 00:38:24;;;;;;;38.63;19.52;;;;;;;-0.10;84.02;101887.50;5038848;28;20430;-81
2022/01/27 00:40:50;;;;;;;35.60;19.00;;;;;;;-0.04;83.55;101888.78;5033024;28;20496;-81
2022/01/27 00:43:17;;;;;;;39.50;20.38;;;;;;;-0.14;83.25;101880.81;5035219;28;20906;-81
2022/01/27 00:45:42;;;;;;;38.05;19.50;;;;;;;-0.08;83.75;101888.22;5039075;28;20429;-81
2022/01/27 00:48:08;;;;;;;38.55;18.80;;;;;;;0.05;83.67;101884.41;5044542;28;20413;-82
2022/01/27 00:50:35;;;;;;;38.13;20.43;;;;;;;0.02;83.09;101884.72;5040501;28;20407;-81
2022/01/27 00:53:04;;;;;;;43.42;20.88;;;;;;;-0.08;83.32;101884.72;5036036;28;20524;-81
2022/01/27 00:55:33;;;;;;;38.47;18.95;;;;;;;-0.14;83.63;101887.94;5034014;28;20409;-81
2022/01/27 00:58:08;;;;;;;37.73;19.87;;;;;;;-0.15;83.35;101892.44;5043197;28;20433;-81
2022/01/27 01:00:39;;;;;;;37.33;19.30;;;;;;;0.07;83.12;101895.81;5046651;28;20416;-81
2022/01/27 01:03:24;;;;;;;38.80;20.05;;;;;;;0.04;83.40;101893.38;5036230;28;20490;-81
2022/01/27 01:06:21;;;;;;;39.55;20.60;;;;;;;-0.01;82.97;101899.16;5043134;28;20434;-81
2022/01/27 01:11:52;;;;;;;38.53;19.50;;;;;;;-0.08;83.44;101888.22;5035683;28;20442;-81
2022/01/27 01:20:00;;;;;;;45.47;22.53;;;;;;;-0.11;83.29;101891.19;5042603;28;20525;-81
2022/01/27 01:33:11;;;;;;;42.35;22.23;;;;;;;-0.05;82.90;101898.59;5047917;28;20985;-81
2022/01/27 01:35:50;;;;;;;42.13;21.73;;;;;;;-0.03;82.45;101891.28;5049909;28;20402;-81
2022/01/27 01:38:20;;;;;;;43.83;21.77;;;;;;;-0.01;82.48;101886.69;5050229;28;20464;-81
2022/01/27 01:40:51;;;;;;;39.28;20.67;;;;;;;0.06;82.38;101881.63;5045553;28;20720;-81
2022/01/27 01:43:18;;;;;;;43.63;22.10;;;;;;;0.04;82.94;101880.06;5037496;28;20415;-81
2022/01/27 01:45:43;;;;;;;46.70;22.70;;;;;;;0.02;82.74;101882.03;5038799;28;20429;-81
2022/01/27 01:48:09;;;;;;;43.92;21.50;;;;;;;0.08;82.28;101876.13;5041386;28;20808;-82
2022/01/27 01:50:34;;;;;;;47.57;22.67;;;;;;;0.10;82.39;101876.84;5040371;28;20411;-81
2022/01/27 01:53:01;;;;;;;42.00;22.00;;;;;;;0.19;82.42;101879.50;5042102;28;20492;-81
2022/01/27 01:55:26;;;;;;;43.45;22.27;;;;;;;0.14;82.01;101876.41;5046101;28;20393;-81
2022/01/27 01:57:52;;;;;;;43.53;21.25;;;;;;;0.06;82.25;101870.13;5043440;28;20468;-81
2022/01/27 02:00:18;;;;;;;48.55;22.33;;;;;;;0.07;82.28;101872.63;5032437;28;20806;-81
2022/01/27 02:02:43;;;;;;;46.28;22.55;;;;;;;-0.08;82.27;101863.41;5044245;28;20406;-81
2022/01/27 02:05:09;;;;;;;45.23;23.13;;;;;;;-0.18;83.15;101852.75;5047537;28;20511;-81
2022/01/27 02:17:58;;;;;;;47.78;23.10;;;;;;;-0.20;82.68;101857.38;5015021;28;20831;-81
2022/01/27 02:19:19;;;;;;;50.40;24.88;;;;;;;-0.17;82.65;101856.25;5038507;28;20464;-81
2022/01/27 02:21:54;;;;;;;43.08;22.80;;;;;;;-0.19;83.29;101858.22;5032257;28;20443;-81
2022/01/27 02:24:22;;;;;;;45.60;23.40;;;;;;;-0.17;82.89;101849.13;5040800;28;20437;-81
2022/01/27 02:26:49;;;;;;;43.85;22.10;;;;;;;-0.18;82.89;101847.44;5034287;28;20433;-81
2022/01/27 02:29:19;;;;;;;44.47;23.20;;;;;;;-0.19;83.44;101850.22;5043766;28;20442;-81
2022/01/27 02:31:46;;;;;;;46.55;23.10;;;;;;;-0.17;82.85;101849.13;5043991;28;20481;-82
2022/01/27 02:34:12;;;;;;;49.35;23.75;;;;;;;-0.18;82.98;101841.25;5032042;28;20403;-81
2022/01/27 02:36:37;;;;;;;48.25;23.30;;;;;;;-0.17;82.94;101834.94;5032774;28;20413;-81
2022/01/27 02:39:05;;;;;;;52.57;24.60;;;;;;;-0.18;83.53;101838.59;5038682;28;20465;-81
2022/01/27 02:41:36;;;;;;;51.28;24.25;;;;;;;-0.10;82.74;101847.53;5035242;28;20452;-81
2022/01/27 02:44:02;;;;;;;50.05;23.33;;;;;;;-0.11;82.50;101851.22;5034416;28;20431;-82
2022/01/27 02:46:39;;;;;;;46.90;23.52;;;;;;;-0.06;82.48;101851.59;5034270;28;20904;-82
2022/01/27 02:49:05;;;;;;;46.83;24.95;;;;;;;-0.14;82.55;101863.97;5035611;28;20457;-82
2022/01/27 02:51:30;;;;;;;44.77;24.17;;;;;;;-0.13;82.46;101869.16;5037379;28;20398;-81
2022/01/27 02:53:57;;;;;;;47.05;24.48;;;;;;;-0.07;82.03;101876.56;5050283;28;20401;-82
2022/01/27 02:56:22;;;;;;;49.92;26.65;;;;;;;-0.15;82.48;101876.44;5039327;28;20400;-81
2022/01/27 02:58:47;;;;;;;48.23;25.73;;;;;;;-0.08;82.08;101880.25;5038058;28;20488;-81
2022/01/27 03:01:18;;;;;;;51.73;26.37;;;;;;;-0.06;81.82;101886.25;5040615;28;20472;-82
2022/01/27 03:03:43;;;;;;;48.42;25.40;;;;;;;-0.13;81.49;101877.13;5041187;28;20386;-81
2022/01/27 03:06:08;;;;;;;52.43;26.20;;;;;;;-0.30;82.26;101882.34;5038067;28;20416;-82
2022/01/27 03:08:33;;;;;;;51.77;27.87;;;;;;;-0.27;82.70;101880.25;5040206;28;20474;-81
2022/01/27 03:11:06;;;;;;;50.63;26.47;;;;;;;-0.22;82.13;101875.31;5040804;28;20416;-82
2022/01/27 03:13:32;;;;;;;51.25;25.85;;;;;;;-0.16;82.01;101880.09;5044290;28;25188;-82
2022/01/27 03:15:57;;;;;;;48.50;24.90;;;;;;;-0.16;82.25;101882.75;5041394;28;20420;-81
2022/01/27 03:18:22;;;;;;;57.93;26.80;;;;;;;-0.28;82.88;101883.03;5047317;28;20502;-79
2022/01/27 03:20:47;;;;;;;55.87;26.43;;;;;;;-0.33;82.73;101872.78;5035344;28;20399;-81
2022/01/27 03:23:13;;;;;;;55.10;28.47;;;;;;;-0.28;82.74;101853.72;5032571;28;20402;-79
2022/01/27 03:25:38;;;;;;;55.60;28.27;;;;;;;-0.35;81.91;101861.44;5033586;28;20484;-82
2022/01/27 03:28:04;;;;;;;54.77;27.50;;;;;;;-0.35;81.93;101857.94;5031632;28;20910;-81
2022/01/27 03:30:30;;;;;;;52.00;26.63;;;;;;;-0.28;81.89;101843.06;5031895;28;20414;-82
2022/01/27 03:32:55;;;;;;;49.87;26.57;;;;;;;-0.41;82.13;101842.53;5038943;28;20408;-79
2022/01/27 03:35:20;;;;;;;50.10;27.30;;;;;;;-0.50;82.25;101838.88;5057687;28;20388;-80
2022/01/27 03:37:46;;;;;;;50.90;25.93;;;;;;;-0.55;82.73;101835.78;5047783;28;20409;-81
2022/01/27 03:40:12;;;;;;;48.47;25.23;;;;;;;-0.55;82.94;101831.31;5031096;28;20403;-81
2022/01/27 03:42:44;;;;;;;53.33;27.80;;;;;;;-0.51;83.40;101823.88;5036847;28;20892;-81
2022/01/27 03:45:11;;;;;;;54.35;27.67;;;;;;;-0.37;82.55;101825.28;5037021;28;20435;-81
2022/01/27 03:47:36;;;;;;;51.35;26.13;;;;;;;-0.48;82.25;101828.09;5039586;28;20912;-81
2022/01/27 03:50:03;;;;;;;55.40;28.03;;;;;;;-0.54;82.74;101821.50;5034178;28;20422;-79
2022/01/27 03:52:28;;;;;;;55.42;27.40;;;;;;;-0.55;82.80;101825.97;5031213;28;20457;-79
2022/01/27 03:54:53;;;;;;;56.27;26.67;;;;;;;-0.51;82.49;101823.88;5031557;28;20411;-79
2022/01/27 03:57:19;;;;;;;59.33;30.37;;;;;;;-0.50;82.09;101819.41;5036895;28;20746;-81
2022/01/27 03:59:44;;;;;;;52.85;27.05;;;;;;;-0.54;82.51;101825.00;5034573;28;20415;-82
2022/01/27 04:02:09;;;;;;;55.40;27.30;;;;;;;-0.38;82.63;101823.59;5040283;28;20476;-81
2022/01/27 04:04:35;;;;;;;48.60;27.17;;;;;;;-0.42;82.45;101827.50;5048356;28;20393;-82
2022/01/27 04:07:02;;;;;;;55.13;28.17;;;;;;;-0.53;82.64;101821.34;5039946;28;20899;-80
2022/01/27 04:09:28;;;;;;;51.88;27.08;;;;;;;-0.54;82.88;101827.69;5043858;28;20407;-81
2022/01/27 04:11:54;;;;;;;54.10;27.52;;;;;;;-0.50;82.23;101819.41;5037090;28;20783;-81
2022/01/27 04:14:19;;;;;;;49.90;27.37;;;;;;;-0.47;82.65;101817.31;5033817;28;20956;-81
2022/01/27 04:16:45;;;;;;;52.67;27.63;;;;;;;-0.47;82.28;101803.16;5029340;28;20407;-81
2022/01/27 04:19:10;;;;;;;47.15;25.42;;;;;;;-0.51;82.16;101807.91;5036312;28;20405;-81
2022/01/27 04:21:36;;;;;;;51.80;26.23;;;;;;;-0.57;82.51;101809.31;5043827;28;20423;-81
2022/01/27 04:24:01;;;;;;;50.83;26.40;;;;;;;-0.66;82.76;101798.66;5035412;28;20731;-81
2022/01/27 04:26:38;;;;;;;52.50;26.80;;;;;;;-0.66;82.67;101804.81;5038561;28;20471;-81
2022/01/27 04:29:04;;;;;;;45.08;24.25;;;;;;;-0.60;82.37;101814.94;5038211;28;25167;-81
2022/01/27 04:31:30;;;;;;;58.30;28.05;;;;;;;-0.53;82.32;101805.38;5036036;28;20407;-81
2022/01/27 04:33:56;;;;;;;55.03;27.63;;;;;;;-0.46;82.04;101810.97;5034774;28;20410;-81
2022/01/27 04:36:29;;;;;;;52.60;26.00;;;;;;;-0.39;81.48;101817.41;5040628;28;20422;-81
2022/01/27 04:39:07;;;;;;;47.65;24.00;;;;;;;-0.41;81.38;101821.22;5043732;28;25170;-81
2022/01/27 04:41:50;;;;;;;42.83;22.90;;;;;;;-0.46;81.59;101813.63;5034065;28;20906;-80
2022/01/27 04:44:40;;;;;;;49.28;24.73;;;;;;;-0.46;81.87;101807.50;5039114;28;20855;-81
2022/01/27 04:47:12;;;;;;;47.33;24.52;;;;;;;-0.57;81.61;101801.34;5042527;28;20901;-80
2022/01/27 04:49:37;;;;;;;46.33;24.55;;;;;;;-0.48;81.32;101788.13;5042102;28;20422;-79
2022/01/27 04:52:04;;;;;;;43.35;24.05;;;;;;;-0.42;81.63;101790.22;5041644;28;20870;-81
2022/01/27 04:54:40;;;;;;;48.40;24.15;;;;;;;-0.59;81.65;101794.44;5034303;28;20407;-80
2022/01/27 04:57:06;;;;;;;41.38;23.73;;;;;;;-0.61;82.20;101797.25;5035267;28;20463;-80
2022/01/27 04:59:37;;;;;;;45.17;25.20;;;;;;;-0.47;81.50;101798.66;5042387;28;20413;-80
2022/01/27 05:02:14;;;;;;;41.35;22.73;;;;;;;-0.40;81.02;101794.47;5034152;28;20404;-80
2022/01/27 05:04:43;;;;;;;44.00;23.40;;;;;;;-0.45;81.11;101786.03;5044306;28;20921;-80
2022/01/27 05:07:09;;;;;;;46.10;23.67;;;;;;;-0.55;81.79;101791.38;5046448;28;20791;-80
2022/01/27 05:09:35;;;;;;;40.92;22.05;;;;;;;-0.48;82.13;101794.31;5034732;28;20423;-80
2022/01/27 05:14:53;;;;;;;43.93;23.60;;;;;;;-0.64;82.07;101791.38;5042769;28;20511;-80
2022/01/27 05:17:19;;;;;;;47.92;24.20;;;;;;;-0.59;82.66;101789.97;5040297;28;20413;-80
2022/01/27 05:19:47;;;;;;;43.88;23.92;;;;;;;-0.50;81.91;101784.78;5044563;28;20876;-80
2022/01/27 05:22:13;;;;;;;46.40;24.57;;;;;;;-0.53;82.26;101794.72;5040509;28;20409;-80
2022/01/27 05:24:38;;;;;;;45.10;24.13;;;;;;;-0.48;81.76;101810.28;5042325;28;20485;-80
2022/01/27 05:27:03;;;;;;;44.33;23.80;;;;;;;-0.54;82.07;101816.19;5043423;28;20806;-80
2022/01/27 05:29:29;;;;;;;51.03;24.67;;;;;;;-0.41;81.32;101811.41;5041348;28;20497;-80
2022/01/27 05:31:54;;;;;;;44.60;23.45;;;;;;;-0.43;81.43;101809.88;5054997;28;20894;-80
2022/01/27 05:34:19;;;;;;;45.17;23.57;;;;;;;-0.38;81.15;101824.44;5036166;28;20459;-81
2022/01/27 05:36:44;;;;;;;44.83;24.27;;;;;;;-0.39;81.25;101824.56;5039573;28;20444;-80
2022/01/27 05:39:10;;;;;;;50.40;24.90;;;;;;;-0.50;81.92;101828.25;5042568;28;20410;-80
2022/01/27 05:41:35;;;;;;;49.33;26.13;;;;;;;-0.56;81.48;101829.63;5033492;28;20423;-80
2022/01/27 05:44:00;;;;;;;46.07;24.57;;;;;;;-0.54;81.81;101841.00;5045731;28;20958;-80
2022/01/27 05:46:25;;;;;;;46.50;25.07;;;;;;;-0.34;81.57;101839.16;5041773;28;20774;-80
2022/01/27 05:48:51;;;;;;;45.70;25.07;;;;;;;-0.41;81.48;101843.38;5034711;28;20411;-81
2022/01/27 05:51:16;;;;;;;43.67;24.53;;;;;;;-0.53;81.49;101845.31;5033531;28;20805;-78
2022/01/27 05:53:42;;;;;;;46.67;24.73;;;;;;;-0.57;82.00;101846.59;5038501;28;20410;-79
2022/01/27 05:56:07;;;;;;;46.27;25.63;;;;;;;-0.48;80.89;101836.91;5037206;28;20424;-79
2022/01/27 05:58:33;;;;;;;44.33;23.80;;;;;;;-0.52;81.17;101841.69;5048453;28;20405;-80
2022/01/27 06:00:58;;;;;;;44.63;23.80;;;;;;;-0.62;81.09;101840.81;5048286;28;20403;-82
2022/01/27 06:03:23;;;;;;;47.03;25.20;;;;;;;-0.63;81.78;101846.31;5038927;28;20407;-79
2022/01/27 06:05:48;;;;;;;45.60;23.85;;;;;;;-0.56;81.58;101845.59;5031667;28;20455;-79
2022/01/27 06:08:14;;;;;;;44.13;24.33;;;;;;;-0.60;81.20;101846.88;5032849;28;20384;-78
2022/01/27 06:10:39;;;;;;;46.57;24.73;;;;;;;-0.50;81.36;101854.03;5042767;28;20405;-80
2022/01/27 06:13:04;;;;;;;46.07;24.00;;;;;;;-0.65;81.73;101845.59;5043567;28;20402;-79
2022/01/27 06:15:30;;;;;;;42.83;22.75;;;;;;;-0.56;80.98;101853.59;5050973;28;20394;-79
2022/01/27 06:17:58;;;;;;;47.07;23.03;;;;;;;-0.57;81.47;101865.22;5034204;28;20411;-80
2022/01/27 06:20:24;;;;;;;46.60;24.33;;;;;;;-0.59;81.96;101853.84;5040512;28;20920;-78
2022/01/27 06:22:53;;;;;;;41.33;22.48;;;;;;;-0.59;81.70;101853.84;5039202;28;20391;-78
2022/01/27 06:25:19;;;;;;;39.60;22.53;;;;;;;-0.56;82.07;101853.59;5035526;28;20640;-77
2022/01/27 06:27:44;;;;;;;42.97;22.23;;;;;;;-0.57;81.67;101854.59;5041962;28;20933;-78
2022/01/27 06:30:12;;;;;;;39.77;21.43;;;;;;;-0.67;81.24;101850.22;5037346;28;20402;-78
2022/01/27 06:32:37;;;;;;;37.60;20.88;;;;;;;-0.68;82.04;101840.53;5045480;28;20423;-78
2022/01/27 06:35:03;;;;;;;37.37;19.47;;;;;;;-0.66;81.31;101836.75;5035835;28;20415;-80
2022/01/27 06:37:33;;;;;;;36.55;20.33;;;;;;;-0.72;81.46;101828.47;5026830;28;20801;-78
2022/01/27 06:39:59;;;;;;;37.33;20.52;;;;;;;-0.66;81.44;101828.75;5061667;28;20431;-78
2022/01/27 06:42:26;;;;;;;35.05;19.25;;;;;;;-0.51;80.88;101823.88;5042828;28;20766;-78
2022/01/27 06:44:51;;;;;;;36.97;19.95;;;;;;;-0.44;80.13;101826.81;5048206;28;20404;-79
2022/01/27 06:47:16;;;;;;;35.97;19.13;;;;;;;-0.49;80.36;101818.44;5036059;28;20397;-79
2022/01/27 06:49:42;;;;;;;32.83;17.80;;;;;;;-0.52;80.12;101817.72;5043887;28;20398;-78
2022/01/27 06:52:07;;;;;;;30.93;17.97;;;;;;;-0.52;79.95;101817.72;5041501;28;20746;-78
2022/01/27 06:54:33;;;;;;;34.45;18.95;;;;;;;-0.56;80.03;101826.94;5042460;28;20393;-78
2022/01/27 06:56:58;;;;;;;39.75;19.95;;;;;;;-0.66;80.59;101831.44;5041887;28;20889;-79
2022/01/27 06:59:23;;;;;;;37.15;20.00;;;;;;;-0.58;80.24;101834.25;5032036;28;20379;-78
2022/01/27 07:01:49;;;;;;;36.63;20.20;;;;;;;-0.57;80.24;101843.09;5042694;28;20444;-79
2022/01/27 07:04:14;;;;;;;39.90;21.80;;;;;;;-0.54;80.17;101850.78;5034288;28;20422;-79
2022/01/27 07:06:39;;;;;;;34.73;18.97;;;;;;;-0.52;80.00;101851.47;5035599;28;20557;-79
2022/01/27 07:09:05;;;;;;;31.40;17.77;;;;;;;-0.53;79.69;101858.63;5042626;28;20523;-79
2022/01/27 07:11:30;;;;;;;37.03;18.73;;;;;;;-0.40;79.74;101858.38;5036827;28;20411;-78
2022/01/27 07:13:56;;;;;;;35.63;18.38;;;;;;;-0.29;78.61;101858.22;5041913;28;20400;-78
2022/01/27 07:16:21;;;;;;;32.47;17.77;;;;;;;-0.33;78.99;101861.31;5037858;28;20867;-79
2022/01/27 07:18:46;;;;;;;26.60;15.23;;;;;;;-0.41;79.13;101864.69;5031699;28;20445;-79
2022/01/27 07:21:11;;;;;;;30.20;17.40;;;;;;;-0.44;79.46;101858.78;5038958;28;20404;-78
2022/01/27 07:23:37;;;;;;;24.83;14.13;;;;;;;-0.37;79.37;101865.25;5039751;28;20399;-79
2022/01/27 07:26:03;;;;;;;22.10;13.47;;;;;;;-0.44;79.47;101856.97;5037603;28;20457;-80
2022/01/27 07:28:28;;;;;;;20.77;12.20;;;;;;;-0.40;79.24;101853.06;5036486;28;20403;-79
2022/01/27 07:30:53;;;;;;;21.07;12.87;;;;;;;-0.41;79.02;101847.84;5033206;28;20434;-79
2022/01/27 07:33:18;;;;;;;23.40;12.70;;;;;;;-0.40;79.29;101841.56;5042161;28;20745;-79
2022/01/27 07:35:44;;;;;;;19.63;12.53;;;;;;;-0.31;78.56;101840.69;5032580;28;20407;-78
2022/01/27 07:38:09;;;;;;;18.75;12.05;;;;;;;-0.22;78.32;101840.69;5035495;28;20833;-78
2022/01/27 07:40:35;;;;;;;19.75;11.57;;;;;;;-0.24;78.29;101832.00;5036159;28;20381;-80
2022/01/27 07:43:01;;;;;;;20.98;12.88;;;;;;;-0.26;78.45;101815.31;5049893;28;20393;-79
2022/01/27 07:45:26;;;;;;;19.80;12.13;;;;;;;-0.19;78.10;101828.91;5036114;28;20411;-78
2022/01/27 07:47:52;;;;;;;23.20;12.80;;;;;;;-0.22;78.07;101826.53;5035992;28;20405;-79
2022/01/27 07:50:17;;;;;;;23.90;13.15;;;;;;;-0.16;77.60;101824.13;5033939;28;20396;-79
2022/01/27 07:52:43;;;;;;;19.65;11.65;;;;;;;-0.14;77.83;101819.53;5041920;28;20432;-78
2022/01/27 07:55:09;;;;;;;23.90;13.38;;;;;;;-0.08;77.64;101813.63;5042388;28;20461;-79
2022/01/27 07:57:34;;;;;;;22.33;12.77;;;;;;;-0.16;78.14;101813.47;5044098;28;20403;-78
2022/01/27 08:00:00;;;;;;;22.97;14.33;;;;;;;-0.07;77.82;101819.78;5036119;28;20758;-79
2022/01/27 08:02:25;;;;;;;22.63;14.27;;;;;;;-0.10;78.12;101815.56;5039310;28;20508;-78
2022/01/27 08:04:51;;;;;;;26.80;15.00;;;;;;;-0.09;77.40;101811.09;5046339;28;20408;-78
2022/01/27 08:07:16;;;;;;;26.53;14.90;;;;;;;-0.10;78.44;101809.44;5041981;28;20402;-79
2022/01/27 08:09:41;;;;;;;27.23;14.10;;;;;;;-0.09;78.45;101805.75;5037761;28;20949;-78
2022/01/27 08:12:07;;;;;;;27.63;15.73;;;;;;;0.04;77.98;101805.44;5047871;28;20407;-79
2022/01/27 08:14:32;;;;;;;32.40;18.00;;;;;;;-0.16;78.57;101807.31;5045517;28;20487;-78
2022/01/27 08:16:58;;;;;;;35.63;18.73;;;;;;;-0.15;78.50;101809.84;5041374;28;20407;-79
2022/01/27 08:19:23;;;;;;;32.37;17.97;;;;;;;-0.03;78.16;101802.50;5038854;28;20413;-78
2022/01/27 08:21:48;;;;;;;31.10;18.23;;;;;;;-0.02;78.10;101802.38;5040088;28;20527;-79
2022/01/27 08:24:15;;;;;;;36.50;18.80;;;;;;;0.06;78.58;101799.00;5045972;28;20395;-79
2022/01/27 08:26:44;;;;;;;38.13;19.67;;;;;;;0.00;78.68;101797.75;5047536;28;20911;-79
2022/01/27 08:29:19;;;;;;;32.95;19.33;;;;;;;0.11;78.12;101801.22;5037991;28;20444;-79
2022/01/27 08:31:58;;;;;;;34.95;18.92;;;;;;;-0.04;78.44;101793.69;5046037;28;20384;-78
2022/01/27 08:34:35;;;;;;;36.97;20.55;;;;;;;-0.14;78.99;101790.22;5036724;28;20411;-79
2022/01/27 08:37:06;;;;;;;40.20;20.50;;;;;;;-0.08;78.66;101788.78;5042887;28;20906;-78
2022/01/27 08:39:32;;;;;;;35.65;18.88;;;;;;;-0.07;79.09;101779.81;5039146;28;20426;-79
2022/01/27 08:41:58;;;;;;;36.67;20.70;;;;;;;-0.04;78.68;101774.19;5042968;28;20405;-79
2022/01/27 08:44:23;;;;;;;38.03;21.23;;;;;;;0.01;79.17;101774.59;5047099;28;20398;-78
2022/01/27 08:46:49;;;;;;;42.33;22.57;;;;;;;0.14;78.55;101766.28;5038160;28;20859;-79
2022/01/27 08:49:17;;;;;;;43.85;23.58;;;;;;;0.19;78.30;101764.03;5045042;28;20397;-78
2022/01/27 08:51:42;;;;;;;48.50;23.60;;;;;;;0.13;78.12;101761.94;5043309;28;20460;-78
2022/01/27 08:54:07;;;;;;;43.57;22.90;;;;;;;0.09;78.82;101765.88;5041765;28;20856;-80
2022/01/27 08:56:33;;;;;;;45.13;24.03;;;;;;;-0.03;79.47;101749.22;5034589;28;20399;-79
2022/01/27 08:58:58;;;;;;;46.33;25.20;;;;;;;-0.03;79.44;101762.53;5049486;28;20502;-79
2022/01/27 09:01:23;;;;;;;46.60;24.10;;;;;;;-0.08;79.76;101744.34;5033525;28;20486;-79
2022/01/27 09:03:50;;;;;;;51.55;25.65;;;;;;;-0.03;79.92;101741.22;5033685;28;20407;-78
2022/01/27 09:06:15;;;;;;;50.37;26.03;;;;;;;-0.04;79.66;101735.06;5033956;28;20418;-80
2022/01/27 09:08:41;;;;;;;51.00;27.10;;;;;;;-0.10;80.05;101740.97;5032792;28;20395;-78
2022/01/27 09:11:06;;;;;;;58.00;28.27;;;;;;;-0.05;80.04;101745.88;5036949;28;20909;-78
2022/01/27 09:13:32;;;;;;;56.47;27.23;;;;;;;-0.10;80.08;101759.59;5033591;28;20415;-78
2022/01/27 09:16:00;;;;;;;52.27;27.07;;;;;;;-0.09;80.75;101763.13;5034345;28;20399;-78
2022/01/27 09:18:25;;;;;;;54.83;27.70;;;;;;;-0.11;80.73;101768.59;5034544;28;20756;-78
2022/01/27 09:20:50;;;;;;;58.83;29.30;;;;;;;-0.13;80.45;101761.72;5039978;28;20394;-78
2022/01/27 09:23:16;;;;;;;57.07;29.53;;;;;;;-0.07;80.40;101761.97;5034121;28;20411;-78
2022/01/27 09:25:46;;;;;;;57.63;29.63;;;;;;;0.07;80.02;101757.22;5033852;28;20469;-77
2022/01/27 09:28:15;;;;;;;56.35;29.50;;;;;;;0.21;78.81;101752.22;5044060;28;20455;-78
2022/01/27 09:30:43;;;;;;;57.73;27.50;;;;;;;0.26;78.75;101749.97;5040933;28;20907;-79
2022/01/27 09:33:08;;;;;;;57.27;27.27;;;;;;;0.27;78.13;101750.78;5040664;28;21011;-78
2022/01/27 09:35:34;;;;;;;58.73;29.60;;;;;;;0.31;78.18;101750.38;5040217;28;20407;-78
2022/01/27 09:38:00;;;;;;;57.50;28.67;;;;;;;0.04;79.18;101752.97;5034510;28;20385;-78
2022/01/27 09:40:28;;;;;;;59.75;29.42;;;;;;;0.17;79.58;101744.66;5046493;28;20486;-78
2022/01/27 09:42:54;;;;;;;72.10;30.13;;;;;;;0.18;79.14;101741.84;5033218;28;20960;-78
2022/01/27 09:45:22;;;;;;;61.50;28.37;;;;;;;-0.02;79.86;101751.75;5044809;28;20408;-78
2022/01/27 09:47:56;;;;;;;62.75;29.65;;;;;;;0.13;79.78;101744.13;5032203;28;20421;-78
2022/01/27 09:52:50;;;;;;;61.45;29.25;;;;;;;0.20;79.64;101747.06;5039739;28;20499;-78
2022/01/27 09:55:15;;;;;;;59.80;28.73;;;;;;;0.11;79.94;101734.59;5033190;28;20474;-78
2022/01/27 09:57:41;;;;;;;60.53;29.90;;;;;;;-0.04;80.24;101742.22;5043004;28;20494;-78
2022/01/27 10:00:06;;;;;;;56.37;28.80;;;;;;;-0.01;80.88;101737.44;5036925;28;20429;-78
2022/01/27 10:02:32;;;;;;;65.50;29.95;;;;;;;0.15;80.66;101750.16;5032846;28;20402;-78
2022/01/27 10:04:58;;;;;;;62.60;29.55;;;;;;;0.21;80.09;101738.06;5045175;28;20405;-78
2022/01/27 10:07:27;;;;;;;65.00;30.73;;;;;;;0.19;80.15;101751.53;5038379;28;20407;-78
2022/01/27 10:10:09;;;;;;;60.15;30.23;;;;;;;0.31;80.56;101744.19;5045901;28;20409;-78
2022/01/27 10:12:39;;;;;;;66.97;30.92;;;;;;;0.27;79.96;101743.63;5035320;28;20433;-78
2022/01/27 10:15:09;;;;;;;66.20;32.85;;;;;;;0.20;80.35;101741.72;5047836;28;20417;-79
2022/01/27 10:17:38;;;;;;;62.30;31.67;;;;;;;0.19;80.54;101754.22;5046221;28;20416;-78
2022/01/27 10:20:14;;;;;;;61.83;30.70;;;;;;;0.42;79.65;101746.66;5043873;28;20397;-78
2022/01/27 10:22:39;;;;;;;56.35;28.85;;;;;;;0.29;80.03;101738.16;5033077;28;25111;-79
2022/01/27 10:25:09;;;;;;;53.07;28.30;;;;;;;0.21;80.47;101744.22;5048657;28;20450;-78
2022/01/27 10:32:56;;;;;;;52.92;27.67;;;;;;;0.33;79.76;101736.91;5032356;28;20681;-78
2022/01/27 10:35:25;;;;;;;52.33;27.48;;;;;;;0.32;79.69;101736.06;5048626;28;20392;-78
2022/01/27 10:38:09;;;;;;;55.63;27.87;;;;;;;0.27;80.12;101737.47;5039744;28;20401;-79
2022/01/27 10:40:37;;;;;;;54.10;27.60;;;;;;;0.42;79.92;101731.50;5040223;28;20413;-78
2022/01/27 10:43:22;;;;;;;50.13;26.83;;;;;;;0.30;80.01;101742.50;5052379;28;20407;-78
2022/01/27 10:48:40;;;;;;;50.67;26.83;;;;;;;0.41;79.69;101740.50;5035336;28;20866;-79
2022/01/27 10:51:13;;;;;;;49.22;25.83;;;;;;;0.52;79.31;101734.97;5033591;28;20453;-78
2022/01/27 10:53:44;;;;;;;47.08;25.63;;;;;;;0.52;79.15;101724.31;5037446;28;20462;-78
2022/01/27 10:56:15;;;;;;;44.00;24.90;;;;;;;0.60;78.96;101717.34;5034481;28;20406;-78
2022/01/27 10:58:42;;;;;;;46.38;25.90;;;;;;;0.66;78.71;101714.13;5038810;28;20474;-79
2022/01/27 11:01:07;;;;;;;42.65;24.08;;;;;;;0.69;78.92;101714.63;5039679;28;20409;-79
2022/01/27 11:03:35;;;;;;;41.90;23.83;;;;;;;0.86;78.22;101720.97;5032052;28;20421;-78
2022/01/27 11:06:08;;;;;;;43.87;23.93;;;;;;;0.89;77.48;101708.16;5032190;28;20535;-78
2022/01/27 11:08:34;;;;;;;41.50;23.38;;;;;;;0.93;78.09;101706.03;5035710;28;20401;-78
2022/01/27 11:11:01;;;;;;;45.10;24.33;;;;;;;1.05;77.71;101707.50;5038088;28;20402;-79
2022/01/27 11:13:27;;;;;;;42.85;23.42;;;;;;;0.93;77.42;101700.69;5033169;28;20399;-78
2022/01/27 11:15:53;;;;;;;41.40;23.70;;;;;;;0.92;77.90;101691.03;5040353;28;20396;-78
2022/01/27 11:18:21;;;;;;;41.47;23.10;;;;;;;0.92;78.15;101680.38;5035355;28;20389;-79
2022/01/27 11:21:09;;;;;;;41.58;22.90;;;;;;;1.11;77.85;101676.69;5036327;28;20978;-78
2022/01/27 11:26:10;;;;;;;40.63;22.42;;;;;;;1.41;77.01;101668.25;5030774;28;20755;-78
2022/01/27 11:28:40;;;;;;;43.95;23.55;;;;;;;1.62;76.13;101658.03;5031744;28;20906;-77
2022/01/27 11:31:39;;;;;;;41.10;23.10;;;;;;;1.62;76.36;101658.03;5030651;28;20407;-79
2022/01/27 11:34:07;;;;;;;41.42;23.67;;;;;;;1.50;76.49;101654.78;5047539;28;20398;-77
2022/01/27 11:36:33;;;;;;;41.70;23.65;;;;;;;1.50;76.73;101648.59;5033124;28;20397;-79
2022/01/27 11:39:00;;;;;;;40.92;22.30;;;;;;;1.54;76.50;101644.63;5036774;28;20415;-78
2022/01/27 11:41:49;;;;;;;41.22;22.58;;;;;;;1.65;76.51;101651.56;5036557;28;20415;-77
2022/01/27 11:44:39;;;;;;;40.45;23.05;;;;;;;1.94;75.92;101660.06;5041521;28;20782;-79
2022/01/27 11:47:08;;;;;;;40.60;23.00;;;;;;;2.00;75.40;101656.75;5032020;28;20407;-77
2022/01/27 11:49:53;;;;;;;41.88;21.80;;;;;;;1.84;75.76;101654.84;5043492;28;20410;-77
2022/01/27 11:52:29;;;;;;;37.63;21.60;;;;;;;1.88;75.58;101661.50;5050038;28;20943;-78
2022/01/27 11:55:16;;;;;;;38.13;20.27;;;;;;;2.01;75.86;101669.09;5038840;28;20497;-77
2022/01/27 11:57:45;;;;;;;41.92;22.75;;;;;;;1.99;75.49;101663.91;5039539;28;20778;-78
2022/01/27 12:00:20;;;;;;;37.73;21.83;;;;;;;1.87;75.98;101667.03;5037907;28;20820;-77